PWSweather.com
Personal Weather Stations
Station Observations
COONRAPIDS
Minneapolis, MN 55433

Minneapolis, MN 55433

Lat: 45.187721, Lon: -93.36828

Elevation: 898

Station Type: Davis Vantage Pro 2

High Low Average
Temperature -5.5°F-20.8°C -14.6°F-25.9°C -9.5°F-23.1°C
Dew Point -13.5°F-25.3°C -21.8°F-29.9°C -18.1°F-27.8°C
Winds 4.6 mph 7.4 kmh Calm Calm 1.0 mph WNW1.6 kmh WNW
Wind Gusts 11.5 mph18.5 kmh -- 3.0 mph4.8 kmh
Humidity 70% 58% 65%
Pressure 30.76 in1041.7 mb 30.51 in1033.2 mb -
Precipitation 0.00 in0.0 mm - -
Hour Temp Dew Point Humidity Winds Wind Gusts Pressure Precip Precip Rate Daily Precip Total
12:00 AM -4.2°F-20.1°C -11.5°F-24.2°C 70% 2.3 mph NW3.7 kmh NW 3.5 mph5.6 kmh 30.50 in1032.8 mb - 0.00 in0.0 mm 0.00 in0.0 mm
12:10 AM -4.5°F-20.3°C -11.8°F-24.3°C 70% 1.2 mph NW1.9 kmh NW 3.5 mph5.6 kmh 30.51 in1033.2 mb - 0.00 in0.0 mm 0.00 in0.0 mm
12:20 AM -4.8°F-20.4°C -12.1°F-24.5°C 70% 2.3 mph NW3.7 kmh NW 6.9 mph11.1 kmh 30.51 in1033.2 mb - 0.00 in0.0 mm 0.00 in0.0 mm
12:30 AM -5.1°F-20.6°C -12.4°F-24.7°C 70% 2.3 mph NW3.7 kmh NW 3.5 mph5.6 kmh 30.51 in1033.2 mb - 0.00 in0.0 mm 0.00 in0.0 mm
12:40 AM -5.4°F-20.8°C -13.0°F-25.0°C 69% 3.5 mph NW5.6 kmh NW 6.9 mph11.1 kmh 30.51 in1033.2 mb - 0.00 in0.0 mm 0.00 in0.0 mm
12:50 AM -5.7°F-20.9°C -13.3°F-25.2°C 69% 1.2 mph WNW1.9 kmh WNW 3.5 mph5.6 kmh 30.52 in1033.5 mb - 0.00 in0.0 mm 0.00 in0.0 mm
01:00 AM -6.0°F-21.1°C -13.5°F-25.3°C 69% 3.5 mph NW5.6 kmh NW 6.9 mph11.1 kmh 30.51 in1033.2 mb - 0.00 in0.0 mm 0.00 in0.0 mm
01:10 AM -6.3°F-21.3°C -13.8°F-25.4°C 69% 1.2 mph NW1.9 kmh NW 4.6 mph7.4 kmh 30.52 in1033.5 mb - 0.00 in0.0 mm 0.00 in0.0 mm
01:20 AM -6.6°F-21.4°C -14.1°F-25.6°C 69% 1.2 mph NW1.9 kmh NW 6.9 mph11.1 kmh 30.52 in1033.5 mb - 0.00 in0.0 mm 0.00 in0.0 mm
01:30 AM -6.9°F-21.6°C -14.4°F-25.8°C 69% 2.3 mph NW3.7 kmh NW 6.9 mph11.1 kmh 30.53 in1033.9 mb - 0.00 in0.0 mm 0.00 in0.0 mm
01:40 AM -7.2°F-21.8°C -14.7°F-25.9°C 69% Calm Calm 3.5 mph5.6 kmh 30.53 in1033.9 mb - 0.00 in0.0 mm 0.00 in0.0 mm
01:50 AM -7.5°F-21.9°C -15.0°F-26.1°C 69% 1.2 mph WNW1.9 kmh WNW 2.3 mph3.7 kmh 30.54 in1034.2 mb - 0.00 in0.0 mm 0.00 in0.0 mm
02:00 AM -7.8°F-22.1°C -15.3°F-26.3°C 69% 1.2 mph NW1.9 kmh NW 4.6 mph7.4 kmh 30.54 in1034.2 mb - 0.00 in0.0 mm 0.00 in0.0 mm
02:10 AM -8.1°F-22.3°C -15.6°F-26.4°C 69% 1.2 mph WNW1.9 kmh WNW 3.5 mph5.6 kmh 30.54 in1034.2 mb - 0.00 in0.0 mm 0.00 in0.0 mm
02:20 AM -8.4°F-22.4°C -15.6°F-26.4°C 70% 1.2 mph NW1.9 kmh NW 3.5 mph5.6 kmh 30.55 in1034.5 mb - 0.00 in0.0 mm 0.00 in0.0 mm
02:30 AM -8.6°F-22.6°C -15.8°F-26.6°C 70% 3.5 mph NW5.6 kmh NW 6.9 mph11.1 kmh 30.55 in1034.5 mb - 0.00 in0.0 mm 0.00 in0.0 mm
02:40 AM -8.8°F-22.7°C -16.2°F-26.8°C 69% 2.3 mph NW3.7 kmh NW 5.8 mph9.3 kmh 30.55 in1034.5 mb - 0.00 in0.0 mm 0.00 in0.0 mm
02:50 AM -9.0°F-22.8°C -16.5°F-26.9°C 69% 2.3 mph NW3.7 kmh NW 9.2 mph14.8 kmh 30.55 in1034.5 mb - 0.00 in0.0 mm 0.00 in0.0 mm
03:00 AM -9.3°F-22.9°C -16.4°F-26.9°C 70% 2.3 mph WNW3.7 kmh WNW 3.5 mph5.6 kmh 30.56 in1034.9 mb - 0.00 in0.0 mm 0.00 in0.0 mm
03:10 AM -9.4°F-23.0°C -16.6°F-27.0°C 70% 1.2 mph WNW1.9 kmh WNW 3.5 mph5.6 kmh 30.56 in1034.9 mb - 0.00 in0.0 mm 0.00 in0.0 mm
03:20 AM -9.7°F-23.2°C -17.1°F-27.3°C 69% 2.3 mph NW3.7 kmh NW 4.6 mph7.4 kmh 30.57 in1035.2 mb - 0.00 in0.0 mm 0.00 in0.0 mm
03:30 AM -9.8°F-23.2°C -17.2°F-27.3°C 69% 1.2 mph W1.9 kmh W 3.5 mph5.6 kmh 30.57 in1035.2 mb - 0.00 in0.0 mm 0.00 in0.0 mm
03:40 AM -10.0°F-23.3°C -17.4°F-27.4°C 69% 2.3 mph W3.7 kmh W 4.6 mph7.4 kmh 30.57 in1035.2 mb - 0.00 in0.0 mm 0.00 in0.0 mm
03:50 AM -10.2°F-23.4°C -17.6°F-27.6°C 69% 1.2 mph NW1.9 kmh NW 4.6 mph7.4 kmh 30.58 in1035.6 mb - 0.00 in0.0 mm 0.00 in0.0 mm
04:00 AM -10.4°F-23.6°C -17.8°F-27.7°C 69% Calm Calm 2.3 mph3.7 kmh 30.58 in1035.6 mb - 0.00 in0.0 mm 0.00 in0.0 mm
04:10 AM -10.6°F-23.7°C -18.0°F-27.8°C 69% Calm Calm 1.2 mph1.9 kmh 30.58 in1035.6 mb - 0.00 in0.0 mm 0.00 in0.0 mm
04:20 AM -10.8°F-23.8°C -18.2°F-27.9°C 69% 1.2 mph NW1.9 kmh NW 3.5 mph5.6 kmh 30.58 in1035.6 mb - 0.00 in0.0 mm 0.00 in0.0 mm
04:30 AM -10.9°F-23.8°C -18.3°F-27.9°C 69% 2.3 mph WNW3.7 kmh WNW 4.6 mph7.4 kmh 30.58 in1035.6 mb - 0.00 in0.0 mm 0.00 in0.0 mm
04:40 AM -11.0°F-23.9°C -18.4°F-28.0°C 69% 1.2 mph WNW1.9 kmh WNW 2.3 mph3.7 kmh 30.58 in1035.6 mb - 0.00 in0.0 mm 0.00 in0.0 mm
04:50 AM -11.2°F-24.0°C -18.5°F-28.1°C 69% 1.2 mph NW1.9 kmh NW 3.5 mph5.6 kmh 30.58 in1035.6 mb - 0.00 in0.0 mm 0.00 in0.0 mm
05:00 AM -11.3°F-24.1°C -18.6°F-28.1°C 69% Calm Calm 1.2 mph1.9 kmh 30.58 in1035.6 mb - 0.00 in0.0 mm 0.00 in0.0 mm
05:10 AM -11.5°F-24.2°C -18.8°F-28.2°C 69% 1.2 mph WNW1.9 kmh WNW 3.5 mph5.6 kmh 30.59 in1035.9 mb - 0.00 in0.0 mm 0.00 in0.0 mm
05:20 AM -11.7°F-24.3°C -19.0°F-28.3°C 69% 1.2 mph NW1.9 kmh NW 3.5 mph5.6 kmh 30.59 in1035.9 mb - 0.00 in0.0 mm 0.00 in0.0 mm
05:30 AM -11.8°F-24.3°C -19.1°F-28.4°C 69% 1.2 mph WNW1.9 kmh WNW 6.9 mph11.1 kmh 30.59 in1035.9 mb - 0.00 in0.0 mm 0.00 in0.0 mm
05:40 AM -12.0°F-24.4°C -19.3°F-28.5°C 69% 1.2 mph NW1.9 kmh NW 1.2 mph1.9 kmh 30.59 in1035.9 mb - 0.00 in0.0 mm 0.00 in0.0 mm
05:50 AM -12.0°F-24.4°C -19.1°F-28.4°C 70% Calm Calm 2.3 mph3.7 kmh 30.59 in1035.9 mb - 0.00 in0.0 mm 0.00 in0.0 mm
06:00 AM -12.2°F-24.6°C -19.5°F-28.6°C 69% Calm Calm 1.2 mph1.9 kmh 30.60 in1036.2 mb - 0.00 in0.0 mm 0.00 in0.0 mm
06:10 AM -12.2°F-24.6°C -19.6°F-28.7°C 69% 1.2 mph NW1.9 kmh NW 4.6 mph7.4 kmh 30.60 in1036.2 mb - 0.00 in0.0 mm 0.00 in0.0 mm
06:20 AM -12.4°F-24.7°C -19.7°F-28.7°C 69% 1.2 mph NW1.9 kmh NW 4.6 mph7.4 kmh 30.60 in1036.2 mb - 0.00 in0.0 mm 0.00 in0.0 mm
06:30 AM -12.6°F-24.8°C -19.9°F-28.8°C 69% 1.2 mph WNW1.9 kmh WNW 3.5 mph5.6 kmh 30.61 in1036.6 mb - 0.00 in0.0 mm 0.00 in0.0 mm
06:40 AM -12.8°F-24.9°C -20.1°F-28.9°C 69% 1.2 mph NW1.9 kmh NW 3.5 mph5.6 kmh 30.61 in1036.6 mb - 0.00 in0.0 mm 0.00 in0.0 mm
06:50 AM -13.0°F-25.0°C -20.3°F-29.1°C 69% 2.3 mph NW3.7 kmh NW 3.5 mph5.6 kmh 30.61 in1036.6 mb - 0.00 in0.0 mm 0.00 in0.0 mm
07:00 AM -13.1°F-25.1°C -20.4°F-29.1°C 69% 4.6 mph NW7.4 kmh NW 10.4 mph16.7 kmh 30.61 in1036.6 mb - 0.00 in0.0 mm 0.00 in0.0 mm
07:10 AM -13.3°F-25.2°C -20.5°F-29.2°C 69% 2.3 mph NW3.7 kmh NW 4.6 mph7.4 kmh 30.61 in1036.6 mb - 0.00 in0.0 mm 0.00 in0.0 mm
07:20 AM -13.4°F-25.2°C -20.7°F-29.3°C 69% 1.2 mph NW1.9 kmh NW 3.5 mph5.6 kmh 30.62 in1036.9 mb - 0.00 in0.0 mm 0.00 in0.0 mm
07:30 AM -13.5°F-25.3°C -20.8°F-29.3°C 69% 1.2 mph NW1.9 kmh NW 4.6 mph7.4 kmh 30.62 in1036.9 mb - 0.00 in0.0 mm 0.00 in0.0 mm
07:40 AM -13.6°F-25.3°C -20.9°F-29.4°C 69% 1.2 mph NW1.9 kmh NW 4.6 mph7.4 kmh 30.62 in1036.9 mb - 0.00 in0.0 mm 0.00 in0.0 mm
07:50 AM -13.7°F-25.4°C -21.0°F-29.4°C 69% 1.2 mph NW1.9 kmh NW 2.3 mph3.7 kmh 30.62 in1036.9 mb - 0.00 in0.0 mm 0.00 in0.0 mm
08:00 AM -13.8°F-25.4°C -21.1°F-29.5°C 69% 1.2 mph W1.9 kmh W 3.5 mph5.6 kmh 30.63 in1037.3 mb - 0.00 in0.0 mm 0.00 in0.0 mm
08:10 AM -14.0°F-25.6°C -20.9°F-29.4°C 70% Calm Calm 2.3 mph3.7 kmh 30.63 in1037.3 mb - 0.00 in0.0 mm 0.00 in0.0 mm
08:20 AM -14.1°F-25.6°C -21.1°F-29.5°C 70% 2.3 mph NW3.7 kmh NW 6.9 mph11.1 kmh 30.63 in1037.3 mb - 0.00 in0.0 mm 0.00 in0.0 mm
08:30 AM -14.2°F-25.7°C -21.2°F-29.6°C 70% 2.3 mph NW3.7 kmh NW 3.5 mph5.6 kmh 30.63 in1037.3 mb - 0.00 in0.0 mm 0.00 in0.0 mm
08:40 AM -14.4°F-25.8°C -21.4°F-29.7°C 70% Calm Calm 8.1 mph13.0 kmh 30.63 in1037.3 mb - 0.00 in0.0 mm 0.00 in0.0 mm
08:50 AM -14.5°F-25.8°C -21.5°F-29.7°C 70% 2.3 mph NW3.7 kmh NW 11.5 mph18.5 kmh 30.63 in1037.3 mb - 0.00 in0.0 mm 0.00 in0.0 mm
09:00 AM -14.5°F-25.8°C -21.7°F-29.8°C 69% Calm Calm 1.2 mph1.9 kmh 30.63 in1037.3 mb - 0.00 in0.0 mm 0.00 in0.0 mm
09:10 AM -14.6°F-25.9°C -21.8°F-29.9°C 69% Calm Calm 2.3 mph3.7 kmh 30.64 in1037.6 mb - 0.00 in0.0 mm 0.00 in0.0 mm
09:20 AM -14.6°F-25.9°C -21.8°F-29.9°C 69% Calm Calm -- 30.64 in1037.6 mb - 0.00 in0.0 mm 0.00 in0.0 mm
09:30 AM -14.6°F-25.9°C -21.8°F-29.9°C 69% 1.2 mph NW1.9 kmh NW 3.5 mph5.6 kmh 30.64 in1037.6 mb - 0.00 in0.0 mm 0.00 in0.0 mm
09:40 AM -14.5°F-25.8°C -21.7°F-29.8°C 69% 3.5 mph NW5.6 kmh NW 4.6 mph7.4 kmh 30.64 in1037.6 mb - 0.00 in0.0 mm 0.00 in0.0 mm
09:50 AM -14.4°F-25.8°C -21.6°F-29.8°C 69% 1.2 mph NW1.9 kmh NW 2.3 mph3.7 kmh 30.65 in1037.9 mb - 0.00 in0.0 mm 0.00 in0.0 mm
10:00 AM -14.2°F-25.7°C -21.5°F-29.7°C 69% 2.3 mph NNW3.7 kmh NNW 8.1 mph13.0 kmh 30.65 in1037.9 mb - 0.00 in0.0 mm 0.00 in0.0 mm
10:10 AM -14.0°F-25.6°C -21.5°F-29.7°C 68% 1.2 mph WNW1.9 kmh WNW 3.5 mph5.6 kmh 30.65 in1037.9 mb - 0.00 in0.0 mm 0.00 in0.0 mm
10:20 AM -13.8°F-25.4°C -21.3°F-29.6°C 68% 3.5 mph NW5.6 kmh NW 10.4 mph16.7 kmh 30.66 in1038.3 mb - 0.00 in0.0 mm 0.00 in0.0 mm
10:30 AM -13.6°F-25.3°C -21.4°F-29.7°C 67% 3.5 mph NW5.6 kmh NW 3.5 mph5.6 kmh 30.66 in1038.3 mb - 0.00 in0.0 mm 0.00 in0.0 mm
10:40 AM -13.3°F-25.2°C -21.4°F-29.7°C 66% 2.3 mph WNW3.7 kmh WNW 4.6 mph7.4 kmh 30.67 in1038.6 mb - 0.00 in0.0 mm 0.00 in0.0 mm
10:50 AM -12.9°F-24.9°C -21.1°F-29.5°C 66% 2.3 mph NW3.7 kmh NW 5.8 mph9.3 kmh 30.67 in1038.6 mb - 0.00 in0.0 mm 0.00 in0.0 mm
11:00 AM -12.9°F-24.9°C -21.3°F-29.6°C 65% 2.3 mph NW3.7 kmh NW 4.6 mph7.4 kmh 30.67 in1038.6 mb - 0.00 in0.0 mm 0.00 in0.0 mm
11:10 AM -12.6°F-24.8°C -21.0°F-29.4°C 65% 2.3 mph N3.7 kmh N 3.5 mph5.6 kmh 30.67 in1038.6 mb - 0.00 in0.0 mm 0.00 in0.0 mm
11:20 AM -12.5°F-24.7°C -20.9°F-29.4°C 65% 1.2 mph NNW1.9 kmh NNW 2.3 mph3.7 kmh 30.67 in1038.6 mb - 0.00 in0.0 mm 0.00 in0.0 mm
11:30 AM -12.2°F-24.6°C -20.7°F-29.3°C 65% 2.3 mph NNW3.7 kmh NNW 3.5 mph5.6 kmh 30.68 in1038.9 mb - 0.00 in0.0 mm 0.00 in0.0 mm
11:40 AM -12.0°F-24.4°C -20.7°F-29.3°C 64% 1.2 mph NW1.9 kmh NW 5.8 mph9.3 kmh 30.67 in1038.6 mb - 0.00 in0.0 mm 0.00 in0.0 mm
11:50 AM -11.6°F-24.2°C -20.4°F-29.1°C 64% 2.3 mph NW3.7 kmh NW 6.9 mph11.1 kmh 30.67 in1038.6 mb - 0.00 in0.0 mm 0.00 in0.0 mm
12:00 PM -11.2°F-24.0°C -20.0°F-28.9°C 64% 1.2 mph NW1.9 kmh NW 3.5 mph5.6 kmh 30.67 in1038.6 mb - 0.00 in0.0 mm 0.00 in0.0 mm
12:10 PM -10.8°F-23.8°C -19.9°F-28.8°C 63% 2.3 mph NW3.7 kmh NW 4.6 mph7.4 kmh 30.67 in1038.6 mb - 0.00 in0.0 mm 0.00 in0.0 mm
12:20 PM -10.3°F-23.5°C -19.4°F-28.6°C 63% 2.3 mph WNW3.7 kmh WNW 2.3 mph3.7 kmh 30.66 in1038.3 mb - 0.00 in0.0 mm 0.00 in0.0 mm
12:30 PM -9.8°F-23.2°C -19.3°F-28.5°C 62% 1.2 mph NW1.9 kmh NW 2.3 mph3.7 kmh 30.66 in1038.3 mb - 0.00 in0.0 mm 0.00 in0.0 mm
12:40 PM -9.0°F-22.8°C -18.6°F-28.1°C 62% 2.3 mph NW3.7 kmh NW 3.5 mph5.6 kmh 30.66 in1038.3 mb - 0.00 in0.0 mm 0.00 in0.0 mm
12:50 PM -9.0°F-22.8°C -18.8°F-28.2°C 61% 1.2 mph N1.9 kmh N 3.5 mph5.6 kmh 30.66 in1038.3 mb - 0.00 in0.0 mm 0.00 in0.0 mm
01:00 PM -9.0°F-22.8°C -18.8°F-28.2°C 61% 2.3 mph NW3.7 kmh NW 3.5 mph5.6 kmh 30.65 in1037.9 mb - 0.00 in0.0 mm 0.00 in0.0 mm
01:10 PM -8.5°F-22.5°C -18.4°F-28.0°C 61% 1.2 mph NW1.9 kmh NW 3.5 mph5.6 kmh 30.64 in1037.6 mb - 0.00 in0.0 mm 0.00 in0.0 mm
01:20 PM -8.1°F-22.3°C -18.0°F-27.8°C 61% 1.2 mph WNW1.9 kmh WNW 5.8 mph9.3 kmh 30.64 in1037.6 mb - 0.00 in0.0 mm 0.00 in0.0 mm
01:30 PM -7.9°F-22.2°C -18.1°F-27.8°C 60% 1.2 mph N1.9 kmh N 3.5 mph5.6 kmh 30.64 in1037.6 mb - 0.00 in0.0 mm 0.00 in0.0 mm
01:40 PM -7.3°F-21.8°C -17.6°F-27.6°C 60% 2.3 mph WNW3.7 kmh WNW 3.5 mph5.6 kmh 30.64 in1037.6 mb - 0.00 in0.0 mm 0.00 in0.0 mm
01:50 PM -7.3°F-21.8°C -17.9°F-27.7°C 59% 2.3 mph N3.7 kmh N 4.6 mph7.4 kmh 30.64 in1037.6 mb - 0.00 in0.0 mm 0.00 in0.0 mm
02:00 PM -7.3°F-21.8°C -17.9°F-27.7°C 59% Calm Calm 1.2 mph1.9 kmh 30.63 in1037.3 mb - 0.00 in0.0 mm 0.00 in0.0 mm
02:10 PM -6.6°F-21.4°C -16.8°F-27.1°C 60% 1.2 mph NW1.9 kmh NW 3.5 mph5.6 kmh 30.63 in1037.3 mb - 0.00 in0.0 mm 0.00 in0.0 mm
02:20 PM -6.4°F-21.3°C -17.3°F-27.4°C 58% Calm Calm -- 30.63 in1037.3 mb - 0.00 in0.0 mm 0.00 in0.0 mm
02:30 PM -6.1°F-21.2°C -17.1°F-27.3°C 58% 1.2 mph N1.9 kmh N 2.3 mph3.7 kmh 30.62 in1036.9 mb - 0.00 in0.0 mm 0.00 in0.0 mm
02:40 PM -5.9°F-21.1°C -16.9°F-27.2°C 58% 2.3 mph WNW3.7 kmh WNW 3.5 mph5.6 kmh 30.62 in1036.9 mb - 0.00 in0.0 mm 0.00 in0.0 mm
02:50 PM -6.3°F-21.3°C -17.3°F-27.4°C 58% 2.3 mph NW3.7 kmh NW 3.5 mph5.6 kmh 30.61 in1036.6 mb - 0.00 in0.0 mm 0.00 in0.0 mm
03:00 PM -6.6°F-21.4°C -17.6°F-27.6°C 58% Calm Calm -- 30.62 in1036.9 mb - 0.00 in0.0 mm 0.00 in0.0 mm
03:10 PM -6.2°F-21.2°C -17.2°F-27.3°C 58% 1.2 mph NNW1.9 kmh NNW 4.6 mph7.4 kmh 30.62 in1036.9 mb - 0.00 in0.0 mm 0.00 in0.0 mm
03:20 PM -5.8°F-21.0°C -16.4°F-26.9°C 59% 1.2 mph NW1.9 kmh NW 2.3 mph3.7 kmh 30.62 in1036.9 mb - 0.00 in0.0 mm 0.00 in0.0 mm
03:30 PM -5.9°F-21.1°C -16.9°F-27.2°C 58% 1.2 mph NW1.9 kmh NW 3.5 mph5.6 kmh 30.62 in1036.9 mb - 0.00 in0.0 mm 0.00 in0.0 mm
03:40 PM -5.6°F-20.9°C -16.6°F-27.0°C 58% 1.2 mph NW1.9 kmh NW 4.6 mph7.4 kmh 30.62 in1036.9 mb - 0.00 in0.0 mm 0.00 in0.0 mm
03:50 PM -5.6°F-20.9°C -16.6°F-27.0°C 58% Calm Calm -- 30.62 in1036.9 mb - 0.00 in0.0 mm 0.00 in0.0 mm
04:00 PM -5.5°F-20.8°C -16.2°F-26.8°C 59% 1.2 mph N1.9 kmh N 2.3 mph3.7 kmh 30.62 in1036.9 mb - 0.00 in0.0 mm 0.00 in0.0 mm
04:10 PM -5.7°F-20.9°C -16.7°F-27.1°C 58% 1.2 mph N1.9 kmh N 3.5 mph5.6 kmh 30.62 in1036.9 mb - 0.00 in0.0 mm 0.00 in0.0 mm
04:20 PM -6.1°F-21.2°C -17.1°F-27.3°C 58% 1.2 mph NW1.9 kmh NW -- 30.62 in1036.9 mb - 0.00 in0.0 mm 0.00 in0.0 mm
04:30 PM -6.2°F-21.2°C -16.8°F-27.1°C 59% Calm Calm 2.3 mph3.7 kmh 30.62 in1036.9 mb - 0.00 in0.0 mm 0.00 in0.0 mm
04:40 PM -6.3°F-21.3°C -16.9°F-27.2°C 59% Calm Calm -- 30.63 in1037.3 mb - 0.00 in0.0 mm 0.00 in0.0 mm
04:50 PM -6.4°F-21.3°C -17.0°F-27.2°C 59% 2.3 mph WNW3.7 kmh WNW 2.3 mph3.7 kmh 30.63 in1037.3 mb - 0.00 in0.0 mm 0.00 in0.0 mm
05:00 PM -6.6°F-21.4°C -16.9°F-27.2°C 60% Calm Calm 2.3 mph3.7 kmh 30.64 in1037.6 mb - 0.00 in0.0 mm 0.00 in0.0 mm
05:10 PM -6.8°F-21.6°C -17.1°F-27.3°C 60% Calm Calm -- 30.64 in1037.6 mb - 0.00 in0.0 mm 0.00 in0.0 mm
05:20 PM -7.1°F-21.7°C -17.0°F-27.2°C 61% Calm Calm 2.3 mph3.7 kmh 30.64 in1037.6 mb - 0.00 in0.0 mm 0.00 in0.0 mm
05:30 PM -7.3°F-21.8°C -17.2°F-27.3°C 61% Calm Calm -- 30.64 in1037.6 mb - 0.00 in0.0 mm 0.00 in0.0 mm
05:40 PM -7.5°F-21.9°C -17.4°F-27.4°C 61% Calm Calm -- 30.65 in1037.9 mb - 0.00 in0.0 mm 0.00 in0.0 mm
05:50 PM -7.7°F-22.1°C -17.3°F-27.4°C 62% Calm Calm -- 30.66 in1038.3 mb - 0.00 in0.0 mm 0.00 in0.0 mm
06:00 PM -8.0°F-22.2°C -17.6°F-27.6°C 62% Calm Calm -- 30.66 in1038.3 mb - 0.00 in0.0 mm 0.00 in0.0 mm
06:10 PM -8.1°F-22.3°C -17.7°F-27.6°C 62% Calm Calm -- 30.66 in1038.3 mb - 0.00 in0.0 mm 0.00 in0.0 mm
06:20 PM -8.3°F-22.4°C -17.5°F-27.5°C 63% Calm Calm -- 30.66 in1038.3 mb - 0.00 in0.0 mm 0.00 in0.0 mm
06:30 PM -8.5°F-22.5°C -17.4°F-27.4°C 64% Calm Calm -- 30.66 in1038.3 mb - 0.00 in0.0 mm 0.00 in0.0 mm
06:40 PM -8.5°F-22.5°C -17.4°F-27.4°C 64% 1.2 mph NW1.9 kmh NW 2.3 mph3.7 kmh 30.66 in1038.3 mb - 0.00 in0.0 mm 0.00 in0.0 mm
06:50 PM -8.6°F-22.6°C -17.5°F-27.5°C 64% 1.2 mph NW1.9 kmh NW 2.3 mph3.7 kmh 30.66 in1038.3 mb - 0.00 in0.0 mm 0.00 in0.0 mm
07:00 PM -8.8°F-22.7°C -17.7°F-27.6°C 64% Calm Calm -- 30.67 in1038.6 mb - 0.00 in0.0 mm 0.00 in0.0 mm
07:10 PM -8.9°F-22.7°C -17.8°F-27.7°C 64% Calm Calm -- 30.67 in1038.6 mb - 0.00 in0.0 mm 0.00 in0.0 mm
07:20 PM -9.1°F-22.8°C -17.7°F-27.6°C 65% Calm Calm -- 30.67 in1038.6 mb - 0.00 in0.0 mm 0.00 in0.0 mm
07:30 PM -9.0°F-22.8°C -17.6°F-27.6°C 65% Calm Calm -- 30.67 in1038.6 mb - 0.00 in0.0 mm 0.00 in0.0 mm
07:40 PM -8.6°F-22.6°C -17.2°F-27.3°C 65% Calm Calm -- 30.67 in1038.6 mb - 0.00 in0.0 mm 0.00 in0.0 mm
07:50 PM -8.5°F-22.5°C -17.1°F-27.3°C 65% Calm Calm -- 30.68 in1038.9 mb - 0.00 in0.0 mm 0.00 in0.0 mm
08:00 PM -8.4°F-22.4°C -17.0°F-27.2°C 65% Calm Calm 2.3 mph3.7 kmh 30.68 in1038.9 mb - 0.00 in0.0 mm 0.00 in0.0 mm
08:10 PM -8.5°F-22.5°C -17.1°F-27.3°C 65% Calm Calm 2.3 mph3.7 kmh 30.68 in1038.9 mb - 0.00 in0.0 mm 0.00 in0.0 mm
08:20 PM -8.4°F-22.4°C -17.0°F-27.2°C 65% 1.2 mph NNW1.9 kmh NNW 1.2 mph1.9 kmh 30.69 in1039.3 mb - 0.00 in0.0 mm 0.00 in0.0 mm
08:30 PM -8.3°F-22.4°C -16.9°F-27.2°C 65% Calm Calm 1.2 mph1.9 kmh 30.69 in1039.3 mb - 0.00 in0.0 mm 0.00 in0.0 mm
08:40 PM -8.2°F-22.3°C -16.8°F-27.1°C 65% Calm Calm -- 30.68 in1038.9 mb - 0.00 in0.0 mm 0.00 in0.0 mm
08:50 PM -8.2°F-22.3°C -16.8°F-27.1°C 65% Calm Calm -- 30.68 in1038.9 mb - 0.00 in0.0 mm 0.00 in0.0 mm
09:00 PM -8.1°F-22.3°C -16.7°F-27.1°C 65% Calm Calm 1.2 mph1.9 kmh 30.69 in1039.3 mb - 0.00 in0.0 mm 0.00 in0.0 mm
09:10 PM -8.1°F-22.3°C -16.7°F-27.1°C 65% 1.2 mph NW1.9 kmh NW 4.6 mph7.4 kmh 30.70 in1039.6 mb - 0.00 in0.0 mm 0.00 in0.0 mm
09:20 PM -8.0°F-22.2°C -16.6°F-27.0°C 65% Calm Calm -- 30.69 in1039.3 mb - 0.00 in0.0 mm 0.00 in0.0 mm
09:30 PM -7.9°F-22.2°C -16.5°F-26.9°C 65% Calm Calm 1.2 mph1.9 kmh 30.70 in1039.6 mb - 0.00 in0.0 mm 0.00 in0.0 mm
09:40 PM -7.8°F-22.1°C -16.4°F-26.9°C 65% Calm Calm -- 30.70 in1039.6 mb - 0.00 in0.0 mm 0.00 in0.0 mm
09:50 PM -7.7°F-22.1°C -16.4°F-26.9°C 65% Calm Calm 2.3 mph3.7 kmh 30.71 in1040.0 mb - 0.00 in0.0 mm 0.00 in0.0 mm
10:00 PM -7.6°F-22.0°C -16.3°F-26.8°C 65% Calm Calm -- 30.71 in1040.0 mb - 0.00 in0.0 mm 0.00 in0.0 mm
10:10 PM -7.6°F-22.0°C -16.3°F-26.8°C 65% Calm Calm 2.3 mph3.7 kmh 30.72 in1040.3 mb - 0.00 in0.0 mm 0.00 in0.0 mm
10:20 PM -7.5°F-21.9°C -16.2°F-26.8°C 65% Calm Calm 1.2 mph1.9 kmh 30.73 in1040.6 mb - 0.00 in0.0 mm 0.00 in0.0 mm
10:30 PM -7.5°F-21.9°C -16.4°F-26.9°C 64% Calm Calm -- 30.73 in1040.6 mb - 0.00 in0.0 mm 0.00 in0.0 mm
10:40 PM -7.3°F-21.8°C -16.0°F-26.7°C 65% 1.2 mph NW1.9 kmh NW 3.5 mph5.6 kmh 30.73 in1040.6 mb - 0.00 in0.0 mm 0.00 in0.0 mm
10:50 PM -7.2°F-21.8°C -16.2°F-26.8°C 64% Calm Calm 1.2 mph1.9 kmh 30.74 in1041.0 mb - 0.00 in0.0 mm 0.00 in0.0 mm
11:00 PM -7.2°F-21.8°C -16.2°F-26.8°C 64% Calm Calm 2.3 mph3.7 kmh 30.74 in1041.0 mb - 0.00 in0.0 mm 0.00 in0.0 mm
11:10 PM -7.2°F-21.8°C -16.5°F-26.9°C 63% 1.2 mph NW1.9 kmh NW 3.5 mph5.6 kmh 30.74 in1041.0 mb - 0.00 in0.0 mm 0.00 in0.0 mm
11:20 PM -7.3°F-21.8°C -16.6°F-27.0°C 63% 1.2 mph NW1.9 kmh NW 3.5 mph5.6 kmh 30.74 in1041.0 mb - 0.00 in0.0 mm 0.00 in0.0 mm
11:30 PM -7.5°F-21.9°C -16.8°F-27.1°C 63% Calm Calm -- 30.74 in1041.0 mb - 0.00 in0.0 mm 0.00 in0.0 mm
11:40 PM -7.5°F-21.9°C -16.5°F-26.9°C 64% Calm Calm -- 30.73 in1040.6 mb - 0.00 in0.0 mm 0.00 in0.0 mm
11:50 PM -7.5°F-21.9°C -16.4°F-26.9°C 64% Calm Calm 3.5 mph5.6 kmh 30.74 in1041.0 mb - 0.00 in0.0 mm 0.00 in0.0 mm